Time;durP1;ratioP1;P1;durP2;ratioP2;P2;SDS_P1;SDS_P2;PMS_P1;PMS_P2;Temp;Humidity;BMP_temperature;BMP_pressure;BME280_temperature;BME280_humidity;BME280_pressure;Samples;Min_cycle;Max_cycle;Signal;HPM_P1;HPM_P2
2021/01/25 00:00:08;;;;;;;1.23;0.90;;;4.50;99.90;;;;;;5050547;28;20402;-76
2021/01/25 00:02:34;;;;;;;1.52;0.90;;;2.40;99.90;;;;;;5050125;28;20386;-75
2021/01/25 00:04:59;;;;;;;1.50;0.60;;;3.70;99.90;;;;;;5050655;28;20389;-75
2021/01/25 00:07:25;;;;;;;0.70;0.70;;;3.40;99.90;;;;;;5049661;28;20468;-76
2021/01/25 00:09:51;;;;;;;0.80;0.70;;;2.30;99.90;;;;;;5050517;28;20373;-76
2021/01/25 00:12:17;;;;;;;1.00;0.50;;;2.30;99.90;;;;;;5049710;28;20377;-76
2021/01/25 00:14:42;;;;;;;0.80;0.80;;;3.60;99.90;;;;;;5050788;28;20791;-76
2021/01/25 00:17:08;;;;;;;1.20;0.80;;;3.20;99.90;;;;;;5048255;28;20444;-77
2021/01/25 00:19:33;;;;;;;1.00;0.90;;;4.40;99.90;;;;;;5048998;28;20400;-76
2021/01/25 00:21:59;;;;;;;1.30;0.82;;;2.40;99.90;;;;;;5050009;28;20474;-76
2021/01/25 00:24:25;;;;;;;1.00;0.50;;;2.30;99.90;;;;;;5049278;28;20394;-76
2021/01/25 00:26:50;;;;;;;0.63;0.60;;;2.60;99.90;;;;;;5048515;28;20508;-76
2021/01/25 00:29:16;;;;;;;0.80;0.70;;;3.30;99.90;;;;;;5049668;28;20470;-76
2021/01/25 00:31:41;;;;;;;1.10;0.63;;;2.90;99.90;;;;;;5050352;28;20381;-76
2021/01/25 00:34:07;;;;;;;0.50;0.50;;;4.20;99.90;;;;;;5049996;28;20377;-77
2021/01/25 00:36:33;;;;;;;0.90;0.60;;;2.50;99.90;;;;;;5049886;28;20496;-76
2021/01/25 00:38:58;;;;;;;0.77;0.60;;;2.10;99.90;;;;;;5050525;28;20413;-76
2021/01/25 00:41:24;;;;;;;0.80;0.60;;;2.30;99.90;;;;;;5049954;28;20400;-76
2021/01/25 00:43:49;;;;;;;0.80;0.68;;;1.90;99.90;;;;;;5050185;28;20378;-76
2021/01/25 00:46:15;;;;;;;1.50;0.63;;;1.90;99.90;;;;;;5049011;28;20400;-76
2021/01/25 00:48:41;;;;;;;1.37;0.60;;;1.60;99.90;;;;;;5049916;28;20772;-75
2021/01/25 00:51:06;;;;;;;0.60;0.60;;;1.90;99.90;;;;;;5049768;28;20386;-76
2021/01/25 00:53:32;;;;;;;1.37;0.50;;;3.70;99.90;;;;;;5049827;28;20374;-75
2021/01/25 00:55:58;;;;;;;0.93;0.63;;;4.40;99.90;;;;;;5049765;28;20386;-75
2021/01/25 00:58:23;;;;;;;1.00;0.60;;;3.90;99.90;;;;;;5049077;28;20496;-76
2021/01/25 01:00:49;;;;;;;0.80;0.80;;;1.90;99.90;;;;;;5049948;28;20696;-76
2021/01/25 01:03:15;;;;;;;1.00;0.80;;;3.60;99.90;;;;;;5049088;28;20439;-76
2021/01/25 01:05:40;;;;;;;1.10;1.10;;;1.80;99.90;;;;;;5049950;28;20452;-76
2021/01/25 01:08:06;;;;;;;0.60;0.60;;;2.90;99.90;;;;;;5048478;28;20390;-75
2021/01/25 01:10:31;;;;;;;0.80;0.80;;;2.20;99.90;;;;;;5048824;28;20476;-75
2021/01/25 01:12:57;;;;;;;0.90;0.80;;;1.70;99.90;;;;;;5049971;28;20900;-75
2021/01/25 01:15:23;;;;;;;0.80;0.80;;;1.30;99.90;;;;;;5050284;28;20381;-76
2021/01/25 01:17:48;;;;;;;0.70;0.70;;;1.50;99.90;;;;;;5053502;28;20746;-76
2021/01/25 01:20:14;;;;;;;1.00;0.90;;;1.20;99.90;;;;;;5053374;28;20386;-77
2021/01/25 01:22:40;;;;;;;2.33;0.90;;;3.40;99.90;;;;;;5053393;28;20421;-76
2021/01/25 01:25:07;;;;;;;0.60;0.60;;;1.10;99.90;;;;;;5053666;28;20374;-76
2021/01/25 01:27:33;;;;;;;1.05;0.82;;;1.60;99.90;;;;;;5052421;28;20405;-76
2021/01/25 01:29:59;;;;;;;0.83;0.80;;;3.50;99.90;;;;;;5053605;28;20382;-76
2021/01/25 01:32:24;;;;;;;1.33;1.00;;;1.50;99.90;;;;;;5052643;28;20373;-76
2021/01/25 01:34:50;;;;;;;1.67;0.90;;;2.70;99.90;;;;;;5053564;28;20465;-76
2021/01/25 01:37:16;;;;;;;1.30;1.10;;;1.60;99.90;;;;;;5052828;28;20409;-77
2021/01/25 01:39:41;;;;;;;0.80;0.70;;;1.50;99.90;;;;;;5053442;28;20921;-76
2021/01/25 01:42:14;;;;;;;0.82;0.65;;;3.30;99.90;;;;;;5053312;28;20397;-77
2021/01/25 01:44:39;;;;;;;0.80;0.70;;;2.20;99.90;;;;;;5052182;28;20446;-77
2021/01/25 01:47:05;;;;;;;1.10;0.80;;;3.10;99.90;;;;;;5053245;28;20385;-76
2021/01/25 01:49:31;;;;;;;0.80;0.70;;;2.80;99.90;;;;;;5052466;28;20570;-76
2021/01/25 01:51:56;;;;;;;1.10;1.00;;;1.60;99.90;;;;;;5053301;28;20374;-76
2021/01/25 01:54:23;;;;;;;1.10;0.80;;;2.20;99.90;;;;;;5052468;28;20404;-77
2021/01/25 01:56:49;;;;;;;0.70;0.70;;;3.00;99.90;;;;;;5053062;28;20404;-77
2021/01/25 01:59:14;;;;;;;0.93;0.60;;;2.00;99.90;;;;;;5051913;28;20956;-78
2021/01/25 02:01:40;;;;;;;1.00;0.60;;;1.40;99.90;;;;;;5051705;28;20858;-77
2021/01/25 02:04:06;;;;;;;1.00;0.50;;;1.40;99.90;;;;;;5052649;28;20429;-77
2021/01/25 02:06:33;;;;;;;0.60;0.60;;;1.50;99.90;;;;;;5052065;28;21096;-77
2021/01/25 02:09:02;;;;;;;0.50;0.50;;;3.10;99.90;;;;;;5052738;28;20390;-77
2021/01/25 02:11:29;;;;;;;0.60;0.40;;;2.30;99.90;;;;;;5050805;28;20390;-77
2021/01/25 02:13:56;;;;;;;0.60;0.60;;;3.50;99.90;;;;;;5052976;28;20443;-76
2021/01/25 02:16:21;;;;;;;0.60;0.50;;;4.00;99.90;;;;;;5052235;28;20381;-77
2021/01/25 02:18:47;;;;;;;0.70;0.60;;;2.80;99.90;;;;;;5053087;28;20896;-76
2021/01/25 02:21:15;;;;;;;0.90;0.77;;;2.50;99.90;;;;;;5052546;28;20785;-77
2021/01/25 02:24:04;;;;;;;1.33;0.80;;;2.80;99.90;;;;;;5052394;28;20389;-75
2021/01/25 02:26:51;;;;;;;0.90;0.60;;;2.80;99.90;;;;;;5050009;28;20441;-76
2021/01/25 02:29:18;;;;;;;0.70;0.60;;;2.90;99.90;;;;;;5050430;28;20436;-76
2021/01/25 02:31:45;;;;;;;1.80;0.98;;;2.40;99.90;;;;;;5052396;28;20453;-75
2021/01/25 02:34:11;;;;;;;1.25;0.93;;;4.40;99.90;;;;;;5051281;28;20465;-75
2021/01/25 02:36:37;;;;;;;1.85;0.90;;;3.00;99.90;;;;;;5051185;28;20408;-75
2021/01/25 02:39:04;;;;;;;0.70;0.70;;;2.20;99.90;;;;;;5052264;28;20421;-75
2021/01/25 02:41:32;;;;;;;1.10;1.00;;;2.40;99.90;;;;;;5050963;28;20707;-75
2021/01/25 02:43:59;;;;;;;0.80;0.80;;;3.60;99.90;;;;;;5052595;28;20386;-75
2021/01/25 02:46:27;;;;;;;0.80;0.60;;;2.40;99.90;;;;;;5051098;28;20393;-76
2021/01/25 02:48:53;;;;;;;1.10;0.90;;;3.20;99.90;;;;;;5051834;28;20409;-76
2021/01/25 02:51:22;;;;;;;2.10;0.70;;;2.40;99.90;;;;;;5050979;28;20390;-77
2021/01/25 02:53:47;;;;;;;4.18;0.60;;;2.80;99.90;;;;;;5052184;28;20378;-76
2021/01/25 02:56:14;;;;;;;1.70;0.60;;;6.00;99.90;;;;;;5051886;28;20398;-76
2021/01/25 02:58:40;;;;;;;1.75;0.52;;;2.50;99.90;;;;;;5051051;28;20420;-75
2021/01/25 03:01:06;;;;;;;0.90;0.70;;;2.30;99.90;;;;;;5051905;28;20377;-75
2021/01/25 03:03:32;;;;;;;1.70;0.40;;;3.10;99.90;;;;;;5051903;28;20850;-75
2021/01/25 03:05:58;;;;;;;1.00;0.40;;;4.10;99.90;;;;;;5052203;28;20370;-75
2021/01/25 03:08:26;;;;;;;0.60;0.40;;;3.30;99.90;;;;;;5051447;28;20811;-76
2021/01/25 03:10:52;;;;;;;1.10;0.50;;;4.60;99.90;;;;;;5052187;28;20389;-77
2021/01/25 03:13:23;;;;;;;0.45;0.30;;;2.50;99.90;;;;;;5051210;28;20468;-76
2021/01/25 03:15:50;;;;;;;0.50;0.38;;;2.90;99.90;;;;;;5052510;28;20378;-76
2021/01/25 03:18:15;;;;;;;0.70;0.40;;;3.60;99.90;;;;;;5051326;28;20406;-77
2021/01/25 03:20:41;;;;;;;0.40;0.30;;;2.90;99.90;;;;;;5051790;28;20382;-75
2021/01/25 03:23:06;;;;;;;0.40;0.30;;;4.60;99.90;;;;;;5051700;28;20385;-76
2021/01/25 03:25:32;;;;;;;1.60;0.45;;;2.70;99.90;;;;;;5051365;28;20381;-76
2021/01/25 03:27:57;;;;;;;0.50;0.50;;;3.60;99.90;;;;;;5052182;28;20496;-77
2021/01/25 03:30:23;;;;;;;1.60;0.60;;;2.60;99.90;;;;;;5051160;28;20909;-75
2021/01/25 03:32:49;;;;;;;1.10;0.70;;;4.30;99.90;;;;;;5050585;28;20888;-74
2021/01/25 03:35:14;;;;;;;0.77;0.40;;;2.70;99.90;;;;;;5051621;28;20389;-75
2021/01/25 03:37:40;;;;;;;0.53;0.40;;;4.10;99.90;;;;;;5050236;28;20938;-76
2021/01/25 03:40:07;;;;;;;0.40;0.30;;;4.10;99.90;;;;;;5051547;28;20447;-76
2021/01/25 03:42:34;;;;;;;0.70;0.40;;;2.70;99.90;;;;;;5050748;28;20473;-75
2021/01/25 03:44:59;;;;;;;0.40;0.30;;;2.80;99.90;;;;;;5051204;28;20415;-75
2021/01/25 03:47:25;;;;;;;0.50;0.40;;;5.00;99.90;;;;;;5050411;28;20471;-75
2021/01/25 03:49:51;;;;;;;0.50;0.30;;;4.00;99.90;;;;;;5051376;28;20381;-75
2021/01/25 03:52:16;;;;;;;0.50;0.30;;;2.70;99.90;;;;;;5051387;28;20377;-76
2021/01/25 03:54:42;;;;;;;0.40;0.32;;;2.40;99.90;;;;;;5050632;28;20382;-77
2021/01/25 03:57:07;;;;;;;0.43;0.30;;;3.60;99.90;;;;;;5051295;28;20450;-76
2021/01/25 03:59:33;;;;;;;0.70;0.43;;;3.90;99.90;;;;;;5050311;28;20762;-76
2021/01/25 04:01:59;;;;;;;0.90;0.40;;;2.40;99.90;;;;;;5050896;28;20377;-76
2021/01/25 04:04:25;;;;;;;0.40;0.30;;;4.90;99.90;;;;;;5050576;28;20476;-76
2021/01/25 04:06:50;;;;;;;0.50;0.30;;;4.60;99.90;;;;;;5049789;28;20447;-76
2021/01/25 04:09:16;;;;;;;0.40;0.30;;;2.70;99.90;;;;;;5051135;28;20388;-76
2021/01/25 04:11:45;;;;;;;0.40;0.40;;;2.70;99.90;;;;;;5050394;28;20427;-75
2021/01/25 04:14:11;;;;;;;0.47;0.40;;;4.90;99.90;;;;;;5051096;28;20386;-75
2021/01/25 04:16:37;;;;;;;0.50;0.40;;;3.90;99.90;;;;;;5050731;28;20484;-75
2021/01/25 04:19:04;;;;;;;0.40;0.30;;;3.00;99.90;;;;;;5050845;28;20413;-75
2021/01/25 04:21:30;;;;;;;0.43;0.32;;;3.50;99.90;;;;;;5050497;28;20403;-75
2021/01/25 04:23:55;;;;;;;0.50;0.40;;;3.80;99.90;;;;;;5051117;28;20385;-75
2021/01/25 04:26:21;;;;;;;1.80;0.40;;;4.20;99.90;;;;;;5050084;28;20429;-75
2021/01/25 04:28:46;;;;;;;0.57;0.50;;;2.90;99.90;;;;;;5050794;28;20878;-75
2021/01/25 04:31:12;;;;;;;1.52;0.50;;;4.00;99.90;;;;;;5050468;28;20746;-75
2021/01/25 04:33:41;;;;;;;0.50;0.30;;;3.20;99.90;;;;;;5050142;28;20378;-76
2021/01/25 04:36:07;;;;;;;0.60;0.40;;;3.60;99.90;;;;;;5050496;28;20488;-75
2021/01/25 04:38:33;;;;;;;0.57;0.38;;;5.20;99.90;;;;;;5049965;28;20416;-76
2021/01/25 04:40:59;;;;;;;0.40;0.30;;;2.80;99.90;;;;;;5050513;28;20385;-75
2021/01/25 04:43:26;;;;;;;0.40;0.40;;;2.80;99.90;;;;;;5050060;28;20409;-76
2021/01/25 04:45:53;;;;;;;0.40;0.30;;;4.20;99.90;;;;;;5050865;28;20384;-76
2021/01/25 04:48:21;;;;;;;0.47;0.40;;;2.60;99.90;;;;;;5051372;28;20419;-75
2021/01/25 04:50:49;;;;;;;0.60;0.40;;;2.60;99.90;;;;;;5054565;28;20468;-75
2021/01/25 04:53:15;;;;;;;0.60;0.38;;;4.40;99.90;;;;;;5054637;28;20393;-75
2021/01/25 04:55:42;;;;;;;1.00;0.40;;;2.50;99.90;;;;;;5054091;28;20572;-78
2021/01/25 04:58:08;;;;;;;1.10;0.40;;;2.50;99.90;;;;;;5054098;28;20821;-78
2021/01/25 05:00:33;;;;;;;0.50;0.40;;;2.20;99.90;;;;;;5054214;28;20370;-79
2021/01/25 05:02:59;;;;;;;1.10;0.65;;;2.00;99.90;;;;;;5054952;28;20860;-79
2021/01/25 05:05:25;;;;;;;1.80;0.60;;;2.00;99.90;;;;;;5053844;28;20884;-79
2021/01/25 05:07:51;;;;;;;0.80;0.50;;;2.20;99.90;;;;;;5054353;28;20385;-77
2021/01/25 05:10:16;;;;;;;0.43;0.40;;;2.90;99.90;;;;;;5054725;28;20419;-79
2021/01/25 05:12:47;;;;;;;0.80;0.60;;;3.70;99.90;;;;;;5053712;28;20384;-77
2021/01/25 05:15:32;;;;;;;0.47;0.40;;;2.00;99.90;;;;;;5054265;28;20393;-77
2021/01/25 05:18:02;;;;;;;0.60;0.60;;;2.00;99.90;;;;;;5047537;28;20409;-77
2021/01/25 05:20:30;;;;;;;0.60;0.50;;;1.80;99.90;;;;;;5050353;28;20405;-77
2021/01/25 05:22:58;;;;;;;0.50;0.50;;;1.90;99.90;;;;;;5051958;28;20381;-78
2021/01/25 05:25:35;;;;;;;0.60;0.60;;;1.60;99.90;;;;;;5049922;28;20896;-78
2021/01/25 05:28:01;;;;;;;0.80;0.60;;;1.90;99.90;;;;;;5049986;28;21195;-77
2021/01/25 05:30:28;;;;;;;0.50;0.50;;;2.70;99.90;;;;;;5051357;28;20920;-78
2021/01/25 05:32:56;;;;;;;1.90;0.70;;;1.90;99.90;;;;;;5066145;28;20373;-75
2021/01/25 05:35:27;;;;;;;0.95;0.88;;;3.30;99.90;;;;;;5046965;28;20818;-77
2021/01/25 05:38:07;;;;;;;0.70;0.60;;;2.90;99.90;;;;;;5048028;28;20443;-77
2021/01/25 05:40:35;;;;;;;0.80;0.80;;;1.60;99.90;;;;;;5049292;28;20433;-77
2021/01/25 05:43:10;;;;;;;0.80;0.60;;;1.50;99.90;;;;;;5050990;28;20754;-78
2021/01/25 05:45:36;;;;;;;0.60;0.60;;;2.50;99.90;;;;;;5046934;28;20815;-77
2021/01/25 05:48:01;;;;;;;0.70;0.60;;;1.60;99.90;;;;;;5047847;28;20404;-77
2021/01/25 05:50:28;;;;;;;1.10;0.82;;;2.20;99.90;;;;;;5051717;28;20416;-80
2021/01/25 05:52:55;;;;;;;0.70;0.70;;;3.50;99.90;;;;;;5053088;28;20886;-82
2021/01/25 05:55:21;;;;;;;0.80;0.70;;;1.70;99.90;;;;;;5069497;28;20377;-80
2021/01/25 05:57:47;;;;;;;0.97;0.70;;;1.50;99.90;;;;;;5052364;28;20417;-82
2021/01/25 06:00:13;;;;;;;2.47;0.90;;;4.20;99.90;;;;;;5052931;28;20416;-80
2021/01/25 06:02:47;;;;;;;1.20;0.70;;;1.70;99.90;;;;;;5052547;28;20464;-80
2021/01/25 06:05:20;;;;;;;1.00;0.80;;;3.90;99.90;;;;;;5053429;28;20408;-81
2021/01/25 06:07:49;;;;;;;1.35;0.90;;;2.00;99.90;;;;;;5051823;28;20629;-80
2021/01/25 06:10:24;;;;;;;1.10;0.70;;;3.60;99.90;;;;;;5053712;28;20389;-81
2021/01/25 06:12:57;;;;;;;2.75;0.98;;;1.60;99.90;;;;;;5051084;28;20382;-80
2021/01/25 06:15:28;;;;;;;1.10;0.80;;;1.80;99.90;;;;;;5055274;28;20385;-81
2021/01/25 06:17:57;;;;;;;0.70;0.60;;;1.60;99.90;;;;;;5052867;28;20422;-80
2021/01/25 06:20:27;;;;;;;1.80;1.10;;;1.70;99.90;;;;;;5053136;28;20382;-79
2021/01/25 06:22:53;;;;;;;0.70;0.70;;;3.90;99.90;;;;;;5052608;28;20472;-80
2021/01/25 06:25:19;;;;;;;1.00;0.90;;;4.10;99.90;;;;;;5052920;28;20464;-80
2021/01/25 06:27:45;;;;;;;1.05;0.80;;;1.70;99.90;;;;;;5052084;28;21023;-79
2021/01/25 06:30:12;;;;;;;0.80;0.70;;;3.20;99.90;;;;;;5052775;28;20388;-80
2021/01/25 06:32:41;;;;;;;1.80;1.00;;;1.70;99.90;;;;;;5051633;28;20439;-80
2021/01/25 06:35:11;;;;;;;0.70;0.70;;;2.50;99.90;;;;;;5052978;28;20435;-79
2021/01/25 06:37:37;;;;;;;1.08;0.63;;;1.50;99.90;;;;;;5051926;28;20996;-80
2021/01/25 06:40:08;;;;;;;1.90;0.80;;;3.40;99.90;;;;;;5051133;28;20669;-80
2021/01/25 06:42:42;;;;;;;1.10;0.70;;;1.80;99.90;;;;;;5052206;28;20396;-78
2021/01/25 06:45:10;;;;;;;1.30;0.70;;;1.70;99.90;;;;;;5052191;28;20392;-78
2021/01/25 06:47:37;;;;;;;0.60;0.60;;;1.90;99.90;;;;;;5042089;28;20404;-80
2021/01/25 06:50:04;;;;;;;1.80;0.60;;;1.90;99.90;;;;;;5054633;28;20492;-79
2021/01/25 06:52:31;;;;;;;2.40;0.63;;;2.00;99.90;;;;;;5047193;28;20892;-79
2021/01/25 06:55:00;;;;;;;0.70;0.70;;;3.90;99.90;;;;;;5045148;28;20393;-79
2021/01/25 06:57:27;;;;;;;0.80;0.53;;;2.30;99.90;;;;;;5044433;28;20848;-77
2021/01/25 06:59:54;;;;;;;2.78;0.80;;;4.20;99.90;;;;;;5051397;28;20463;-78
2021/01/25 07:02:23;;;;;;;2.03;0.73;;;2.00;99.90;;;;;;5048985;28;20379;-77
2021/01/25 07:04:51;;;;;;;0.60;0.50;;;1.80;99.90;;;;;;5050198;28;20394;-78
2021/01/25 07:07:30;;;;;;;0.80;0.45;;;3.60;99.90;;;;;;5048067;28;20742;-78
2021/01/25 07:09:57;;;;;;;0.80;0.63;;;2.10;99.90;;;;;;5050662;28;20389;-77
2021/01/25 07:12:25;;;;;;;0.52;0.40;;;2.10;99.90;;;;;;5047446;28;20901;-77
2021/01/25 07:14:52;;;;;;;1.20;1.00;;;2.40;99.90;;;;;;5048308;28;20468;-77
2021/01/25 07:17:18;;;;;;;0.57;0.50;;;4.10;99.90;;;;;;5044700;28;20388;-77
2021/01/25 07:19:45;;;;;;;0.50;0.40;;;2.40;99.90;;;;;;5045686;28;20386;-77
2021/01/25 07:22:11;;;;;;;0.50;0.50;;;2.20;99.90;;;;;;5049418;28;20384;-77
2021/01/25 07:24:38;;;;;;;0.82;0.45;;;2.50;99.90;;;;;;5046775;28;20828;-77
2021/01/25 07:27:05;;;;;;;1.50;0.50;;;3.30;99.90;;;;;;5046707;28;20410;-77
2021/01/25 07:29:32;;;;;;;1.00;0.73;;;2.20;99.90;;;;;;5042622;28;20384;-77
2021/01/25 07:31:59;;;;;;;1.30;0.70;;;2.80;99.90;;;;;;5047656;28;20390;-78
2021/01/25 07:34:33;;;;;;;1.42;0.80;;;2.10;99.90;;;;;;5076684;27;20367;-78
2021/01/25 07:36:59;;;;;;;0.60;0.50;;;1.40;99.90;;;;;;5074099;28;20406;-79
2021/01/25 07:39:24;;;;;;;1.30;0.70;;;2.00;99.90;;;;;;5079052;28;20731;-80
2021/01/25 07:41:50;;;;;;;0.70;0.57;;;4.10;99.90;;;;;;5078566;28;20389;-80
2021/01/25 07:44:16;;;;;;;1.80;1.00;;;2.60;99.90;;;;;;5075488;28;20407;-81
2021/01/25 07:46:44;;;;;;;1.50;0.70;;;2.40;99.90;;;;;;5077311;28;20381;-81
2021/01/25 07:49:10;;;;;;;1.80;0.80;;;2.60;99.90;;;;;;5078029;28;20387;-81
2021/01/25 07:51:37;;;;;;;1.00;0.40;;;2.60;99.90;;;;;;5076920;28;20391;-80
2021/01/25 07:54:05;;;;;;;0.50;0.50;;;4.60;99.90;;;;;;5077764;28;20550;-81
2021/01/25 07:56:31;;;;;;;1.63;0.80;;;2.20;99.90;;;;;;5078441;28;20428;-80
2021/01/25 07:59:08;;;;;;;0.98;0.65;;;3.80;99.90;;;;;;5074892;28;20383;-80
2021/01/25 08:01:43;;;;;;;1.40;0.60;;;4.40;99.90;;;;;;5078782;28;20476;-80
2021/01/25 08:04:15;;;;;;;2.67;0.90;;;4.00;99.90;;;;;;5075038;28;20407;-81
2021/01/25 08:06:42;;;;;;;0.60;0.60;;;3.10;99.90;;;;;;5075605;28;20383;-81
2021/01/25 08:09:11;;;;;;;3.30;0.50;;;2.60;99.90;;;;;;5091086;28;20383;-81
2021/01/25 08:11:39;;;;;;;0.60;0.40;;;4.10;99.90;;;;;;5091854;28;20407;-78
2021/01/25 08:14:45;;;;;;;2.20;0.50;;;3.90;99.90;;;;;;5092517;28;20527;-80
2021/01/25 08:17:35;;;;;;;0.67;0.40;;;2.70;99.90;;;;;;5089247;28;20387;-79
2021/01/25 08:20:09;;;;;;;1.00;0.90;;;4.50;99.90;;;;;;5075668;28;20395;-81
2021/01/25 08:22:56;;;;;;;1.25;0.70;;;2.60;99.90;;;;;;5077756;28;20394;-81
2021/01/25 08:25:26;;;;;;;1.30;0.68;;;2.60;99.90;;;;;;5077462;28;20445;-81
2021/01/25 08:28:05;;;;;;;0.60;0.50;;;3.70;99.90;;;;;;5074971;28;20440;-81
2021/01/25 08:30:40;;;;;;;0.70;0.50;;;2.60;99.90;;;;;;5075305;28;20385;-82
2021/01/25 08:33:08;;;;;;;0.73;0.55;;;2.70;99.90;;;;;;5083753;28;20433;-81
2021/01/25 08:35:53;;;;;;;0.80;0.60;;;3.10;99.90;;;;;;5098823;28;20405;-81
2021/01/25 08:38:28;;;;;;;1.00;0.90;;;0.90;99.90;;;;;;5078282;28;20394;-81
2021/01/25 08:40:58;;;;;;;1.90;0.70;;;2.90;99.90;;;;;;5096545;28;20390;-81
2021/01/25 08:43:30;;;;;;;0.90;0.70;;;2.10;99.90;;;;;;5078110;28;20393;-79
2021/01/25 08:46:17;;;;;;;0.80;0.80;;;4.30;99.90;;;;;;5082795;28;20370;-81
2021/01/25 08:48:44;;;;;;;1.30;0.60;;;2.70;99.90;;;;;;5081179;28;21403;-80
2021/01/25 08:51:15;;;;;;;1.80;0.90;;;5.40;99.90;;;;;;5066232;28;20378;-78
2021/01/25 08:53:45;;;;;;;0.82;0.70;;;5.40;99.90;;;;;;5081005;28;20424;-76
2021/01/25 08:56:16;;;;;;;1.70;0.70;;;2.60;99.90;;;;;;5083383;28;20398;-75
2021/01/25 08:58:42;;;;;;;1.40;0.50;;;2.80;99.90;;;;;;5078868;28;20414;-76
2021/01/25 09:01:27;;;;;;;3.60;0.80;;;5.20;99.90;;;;;;5081065;28;20984;-75
2021/01/25 09:03:53;;;;;;;1.00;0.90;;;2.90;99.90;;;;;;5079753;28;20442;-73
2021/01/25 09:06:19;;;;;;;0.90;0.70;;;3.30;99.90;;;;;;5082085;28;20945;-74
2021/01/25 09:08:45;;;;;;;1.03;0.60;;;2.90;99.90;;;;;;5080766;28;20374;-74
2021/01/25 09:11:11;;;;;;;2.42;1.00;;;3.00;99.90;;;;;;5082363;28;20394;-74
2021/01/25 09:13:36;;;;;;;1.10;0.95;;;3.80;99.90;;;;;;5082476;28;20402;-74
2021/01/25 09:16:02;;;;;;;1.50;0.93;;;3.00;99.90;;;;;;5082782;28;20727;-74
2021/01/25 09:18:30;;;;;;;1.27;0.60;;;3.00;99.90;;;;;;5080126;28;20399;-74
2021/01/25 09:20:56;;;;;;;1.10;0.85;;;3.90;99.90;;;;;;5081883;28;20385;-74
2021/01/25 09:23:21;;;;;;;1.88;0.90;;;3.70;99.90;;;;;;5083541;28;20386;-74
2021/01/25 09:25:47;;;;;;;2.50;0.60;;;3.00;99.90;;;;;;5082476;28;20875;-74
2021/01/25 09:28:14;;;;;;;1.80;0.70;;;3.30;99.90;;;;;;5093916;28;20452;-73
2021/01/25 09:30:40;;;;;;;1.60;1.10;;;2.80;99.90;;;;;;5078369;28;20382;-75
2021/01/25 09:33:06;;;;;;;1.10;0.50;;;3.90;99.90;;;;;;5081792;28;20422;-74
2021/01/25 09:35:32;;;;;;;1.13;0.77;;;2.90;99.90;;;;;;5081525;28;20481;-75
2021/01/25 09:37:59;;;;;;;1.27;0.80;;;2.80;99.90;;;;;;5079926;28;20374;-74
2021/01/25 09:40:25;;;;;;;1.10;1.00;;;3.30;99.90;;;;;;5082822;28;20408;-75
2021/01/25 09:42:51;;;;;;;2.70;1.10;;;2.90;99.90;;;;;;5080048;28;21216;-75
2021/01/25 09:45:19;;;;;;;0.70;0.67;;;2.90;99.90;;;;;;5083101;28;20442;-75
2021/01/25 09:47:45;;;;;;;2.03;0.75;;;3.00;99.90;;;;;;5079527;28;20378;-75
2021/01/25 09:50:14;;;;;;;0.70;0.70;;;3.00;99.90;;;;;;5080495;28;20382;-76
2021/01/25 09:52:40;;;;;;;0.93;0.77;;;3.00;99.90;;;;;;5082219;28;21071;-76
2021/01/25 09:55:07;;;;;;;0.88;0.73;;;1.70;99.90;;;;;;5082255;28;20412;-77
2021/01/25 09:57:33;;;;;;;0.70;0.63;;;3.30;99.90;;;;;;5077066;28;20889;-77
2021/01/25 09:59:59;;;;;;;0.77;0.70;;;3.40;99.90;;;;;;5080749;28;20386;-78
2021/01/25 10:02:24;;;;;;;0.80;0.67;;;5.50;99.90;;;;;;5083378;28;20402;-78
2021/01/25 10:04:50;;;;;;;2.10;0.70;;;3.00;99.90;;;;;;5080645;28;20388;-75
2021/01/25 10:07:16;;;;;;;1.48;1.00;;;3.10;99.90;;;;;;5078861;28;20412;-77
2021/01/25 10:09:42;;;;;;;1.90;0.85;;;3.10;99.90;;;;;;5082160;28;20402;-76
2021/01/25 10:12:08;;;;;;;1.40;0.80;;;3.50;99.90;;;;;;5080658;28;21277;-76
2021/01/25 10:14:33;;;;;;;0.90;0.80;;;3.30;99.90;;;;;;5081002;28;20469;-76
2021/01/25 10:16:59;;;;;;;2.00;0.80;;;3.40;99.90;;;;;;5080088;28;20402;-77
2021/01/25 10:19:25;;;;;;;0.60;0.50;;;3.40;99.90;;;;;;5062618;28;20539;-77
2021/01/25 10:21:51;;;;;;;1.70;0.63;;;;;;;;;;5080067;28;20465;-77
2021/01/25 10:24:17;;;;;;;1.00;0.60;;;3.20;99.90;;;;;;5082445;28;20448;-77
2021/01/25 10:26:43;;;;;;;1.30;0.90;;;2.80;99.90;;;;;;5079219;28;21451;-77
2021/01/25 10:29:08;;;;;;;0.90;0.70;;;3.30;99.90;;;;;;5078120;28;20429;-77
2021/01/25 10:31:34;;;;;;;0.73;0.73;;;4.10;99.90;;;;;;5079001;28;20451;-77
2021/01/25 10:34:00;;;;;;;1.60;0.60;;;4.70;99.90;;;;;;5080307;28;20414;-75
2021/01/25 10:36:25;;;;;;;3.55;0.93;;;3.60;99.90;;;;;;5079736;28;20393;-76
2021/01/25 10:38:51;;;;;;;0.60;0.60;;;3.60;99.90;;;;;;5079722;28;21010;-77
2021/01/25 10:41:17;;;;;;;2.50;1.20;;;3.70;99.90;;;;;;5062981;28;20436;-76
2021/01/25 10:43:43;;;;;;;1.35;0.80;;;3.90;99.90;;;;;;5078933;28;20404;-76
2021/01/25 10:46:09;;;;;;;2.25;0.80;;;3.90;99.90;;;;;;5081237;28;20383;-76
2021/01/25 10:48:35;;;;;;;0.80;0.70;;;3.70;99.90;;;;;;5079996;28;20420;-76
2021/01/25 10:51:01;;;;;;;1.30;0.70;;;2.40;99.90;;;;;;5078276;28;20382;-77
2021/01/25 10:53:27;;;;;;;0.77;0.70;;;4.40;99.90;;;;;;5081066;28;20977;-76
2021/01/25 10:55:52;;;;;;;1.92;0.90;;;3.90;99.90;;;;;;5062462;28;20409;-76
2021/01/25 10:58:18;;;;;;;1.00;0.70;;;6.10;99.90;;;;;;5075247;28;20420;-77
2021/01/25 11:00:44;;;;;;;1.65;1.00;;;5.60;99.90;;;;;;5079003;28;20390;-77
2021/01/25 11:03:10;;;;;;;1.20;0.70;;;5.60;99.90;;;;;;5080482;28;20408;-77
2021/01/25 11:05:36;;;;;;;1.60;1.00;;;5.20;99.90;;;;;;5079983;28;20485;-78
2021/01/25 11:08:03;;;;;;;2.90;0.80;;;3.90;99.90;;;;;;5056784;28;20393;-78
2021/01/25 11:10:29;;;;;;;1.02;0.90;;;4.00;99.90;;;;;;5063101;28;20454;-79
2021/01/25 11:12:55;;;;;;;1.27;0.80;;;3.80;99.90;;;;;;5078879;28;20416;-78
2021/01/25 11:15:22;;;;;;;1.10;0.80;;;3.70;99.90;;;;;;5080360;28;20390;-78
2021/01/25 11:17:48;;;;;;;0.90;0.63;;;4.20;99.90;;;;;;5060739;28;20735;-78
2021/01/25 11:20:14;;;;;;;1.20;0.90;;;4.20;99.90;;;;;;5062150;28;20398;-76
2021/01/25 11:22:40;;;;;;;2.10;1.00;;;4.10;99.90;;;;;;5079539;28;20905;-77
2021/01/25 11:25:06;;;;;;;0.60;0.60;;;4.00;99.90;;;;;;5080600;28;20381;-77
2021/01/25 11:27:33;;;;;;;1.00;0.90;;;4.00;99.90;;;;;;5060606;28;20409;-78
2021/01/25 11:29:59;;;;;;;1.20;0.75;;;5.80;99.90;;;;;;5076553;28;20378;-76
2021/01/25 11:32:25;;;;;;;0.70;0.50;;;4.00;99.90;;;;;;5062345;28;20466;-76
2021/01/25 11:34:51;;;;;;;1.60;0.90;;;4.00;99.90;;;;;;5080412;28;20378;-76
2021/01/25 11:37:17;;;;;;;1.20;0.70;;;6.50;99.90;;;;;;5078085;28;20385;-76
2021/01/25 11:39:43;;;;;;;1.00;0.70;;;4.20;99.90;;;;;;5081317;28;20382;-75
2021/01/25 11:42:09;;;;;;;0.80;0.70;;;4.30;99.90;;;;;;5062767;28;20391;-77
2021/01/25 11:44:36;;;;;;;0.80;0.50;;;4.70;99.90;;;;;;5061794;28;20405;-78
2021/01/25 11:47:03;;;;;;;3.17;0.57;;;4.40;99.90;;;;;;5089670;28;20939;-78
2021/01/25 11:49:28;;;;;;;1.70;0.70;;;5.30;99.90;;;;;;5090032;28;20374;-79
2021/01/25 11:51:54;;;;;;;1.17;0.80;;;6.00;99.90;;;;;;5088346;28;20381;-78
2021/01/25 11:54:20;;;;;;;0.80;0.63;;;4.20;99.90;;;;;;5078194;28;20448;-77
2021/01/25 11:56:46;;;;;;;1.30;0.70;;;5.00;99.90;;;;;;5077634;28;20390;-76
2021/01/25 11:59:12;;;;;;;0.90;0.40;;;6.00;99.90;;;;;;5078865;28;20389;-78
2021/01/25 12:01:38;;;;;;;1.50;0.50;;;4.20;99.90;;;;;;5080078;28;20390;-77
2021/01/25 12:04:05;;;;;;;0.75;0.70;;;4.90;99.90;;;;;;5077481;28;20410;-77
2021/01/25 12:06:31;;;;;;;1.23;0.70;;;4.80;99.90;;;;;;5078127;28;20399;-77
2021/01/25 12:08:56;;;;;;;0.60;0.60;;;4.80;99.90;;;;;;5078039;28;20383;-77
2021/01/25 12:11:22;;;;;;;0.70;0.70;;;5.90;99.90;;;;;;5080427;28;20459;-77
2021/01/25 12:13:48;;;;;;;0.90;0.70;;;6.00;99.90;;;;;;5076869;28;21235;-77
2021/01/25 12:16:15;;;;;;;0.70;0.50;;;3.10;99.90;;;;;;5078921;28;20505;-79
2021/01/25 12:18:45;;;;;;;0.60;0.60;;;4.70;99.90;;;;;;5080958;28;20380;-78
2021/01/25 12:21:12;;;;;;;1.67;0.90;;;4.50;99.90;;;;;;5082265;28;21097;-79
2021/01/25 12:23:38;;;;;;;1.10;0.70;;;4.60;99.90;;;;;;5080323;28;20398;-78
2021/01/25 12:26:04;;;;;;;1.05;0.70;;;4.60;99.90;;;;;;5046614;28;20401;-78
2021/01/25 12:28:31;;;;;;;2.33;0.52;;;4.50;99.90;;;;;;5083791;28;20405;-78
2021/01/25 12:30:59;;;;;;;0.80;0.70;;;4.50;99.90;;;;;;5062781;28;21064;-78
2021/01/25 12:33:25;;;;;;;1.50;0.80;;;3.90;99.90;;;;;;5083437;28;20441;-77
2021/01/25 12:35:50;;;;;;;1.38;0.82;;;4.20;99.90;;;;;;5081848;28;20885;-79
2021/01/25 12:38:16;;;;;;;1.60;0.90;;;4.50;99.90;;;;;;5081686;28;20520;-77
2021/01/25 12:40:42;;;;;;;0.90;0.70;;;5.40;99.90;;;;;;5083695;28;20843;-77
2021/01/25 12:43:07;;;;;;;0.50;0.50;;;5.60;99.90;;;;;;5064995;28;20446;-78
2021/01/25 12:45:33;;;;;;;0.80;0.67;;;6.30;99.90;;;;;;5079605;28;20435;-77
2021/01/25 12:47:59;;;;;;;1.52;1.00;;;5.70;99.90;;;;;;5083012;28;20886;-77
2021/01/25 12:50:24;;;;;;;1.02;0.80;;;5.40;99.90;;;;;;5083861;28;21219;-77
2021/01/25 12:52:50;;;;;;;0.50;0.40;;;4.90;99.90;;;;;;5081722;28;20406;-78
2021/01/25 12:55:16;;;;;;;1.20;0.90;;;6.00;99.90;;;;;;5078172;28;20405;-77
2021/01/25 12:57:44;;;;;;;0.90;0.90;;;4.30;99.90;;;;;;5083936;28;20382;-77